Time;durP1;ratioP1;P1;durP2;ratioP2;P2;SDS_P1;SDS_P2;PMS_P1;PMS_P2;Temp;Humidity;BMP_temperature;BMP_pressure;BME280_temperature;BME280_humidity;BME280_pressure;Samples;Min_cycle;Max_cycle;Signal;HPM_P1;HPM_P2
2023/06/19 00:01:43;;;;;;;4.93;3.90;;;20.80;91.00;;;;;;4940489;29;20424;-84
2023/06/19 00:04:14;;;;;;;15.23;6.50;;;20.80;91.50;;;;;;4941197;29;20477;-89
2023/06/19 00:06:48;;;;;;;4.17;3.67;;;20.70;91.60;;;;;;4942458;28;20343;-87
2023/06/19 00:09:14;;;;;;;4.93;3.40;;;20.70;91.50;;;;;;4937839;29;20427;-87
2023/06/19 00:11:39;;;;;;;3.50;3.30;;;20.60;91.60;;;;;;4942553;29;20430;-86
2023/06/19 00:14:05;;;;;;;11.80;4.20;;;20.60;91.90;;;;;;4943214;29;20432;-87
2023/06/19 00:16:33;;;;;;;3.77;2.93;;;20.60;91.70;;;;;;4941719;29;20175;-88
2023/06/19 00:19:01;;;;;;;16.00;5.07;;;20.50;91.80;;;;;;4938947;29;20203;-87
2023/06/19 00:21:27;;;;;;;8.47;4.87;;;20.50;92.00;;;;;;4944726;29;20424;-84
2023/06/19 00:23:53;;;;;;;11.23;5.50;;;20.40;92.00;;;;;;4949035;28;20478;-85
2023/06/19 00:26:25;;;;;;;8.10;4.27;;;20.40;92.00;;;;;;4948671;29;20184;-88
2023/06/19 00:28:54;;;;;;;5.53;4.23;;;20.30;92.20;;;;;;4949306;28;20408;-88
2023/06/19 00:31:27;;;;;;;4.07;3.87;;;20.30;92.30;;;;;;4942374;29;20467;-88
2023/06/19 00:33:53;;;;;;;3.60;3.07;;;20.20;92.60;;;;;;4941144;28;21012;-87
2023/06/19 00:36:24;;;;;;;5.87;3.40;;;20.20;92.60;;;;;;4933718;28;20446;-86
2023/06/19 00:38:57;;;;;;;5.63;4.70;;;20.10;92.80;;;;;;4940247;29;20188;-87
2023/06/19 00:41:25;;;;;;;5.07;3.83;;;20.10;93.10;;;;;;4946902;29;20859;-89
2023/06/19 00:43:52;;;;;;;4.90;3.50;;;20.00;93.20;;;;;;4946562;29;20555;-84
2023/06/19 00:46:18;;;;;;;4.40;3.40;;;20.00;93.30;;;;;;4943286;29;20411;-85
2023/06/19 00:48:44;;;;;;;4.73;3.30;;;20.00;93.20;;;;;;4936760;29;20478;-86
2023/06/19 00:51:09;;;;;;;4.90;3.90;;;20.00;93.40;;;;;;4945882;29;20203;-86
2023/06/19 00:53:35;;;;;;;3.93;3.10;;;20.00;93.40;;;;;;4943551;29;20190;-86
2023/06/19 00:56:03;;;;;;;3.73;3.53;;;19.90;93.50;;;;;;4940524;29;20195;-87
2023/06/19 00:58:29;;;;;;;10.90;3.03;;;20.00;93.60;;;;;;4938539;29;20188;-85
2023/06/19 01:00:56;;;;;;;5.00;3.27;;;20.00;93.60;;;;;;4938899;29;20454;-84
2023/06/19 01:03:21;;;;;;;6.10;3.70;;;20.00;93.60;;;;;;4946734;29;20325;-87
2023/06/19 01:05:50;;;;;;;7.13;3.80;;;20.00;93.60;;;;;;4942218;29;20504;-89
2023/06/19 01:08:41;;;;;;;9.03;4.30;;;20.10;93.50;;;;;;4939073;29;20188;-88
2023/06/19 01:11:11;;;;;;;6.00;3.13;;;20.10;93.40;;;;;;4942374;29;20471;-84
2023/06/19 01:13:43;;;;;;;3.10;2.90;;;20.10;93.10;;;;;;4941687;29;20443;-89
2023/06/19 01:16:10;;;;;;;5.27;4.20;;;20.20;93.10;;;;;;4944816;29;20420;-88
2023/06/19 01:18:36;;;;;;;3.53;3.43;;;20.20;92.80;;;;;;4938981;29;20530;-85
2023/06/19 01:21:17;;;;;;;4.37;3.73;;;20.20;93.30;;;;;;4949586;29;20478;-89
2023/06/19 01:23:43;;;;;;;6.57;4.40;;;20.20;93.00;;;;;;4936973;29;20486;-86
2023/06/19 01:26:10;;;;;;;4.53;3.57;;;20.30;92.80;;;;;;4938784;29;20426;-85
2023/06/19 01:28:39;;;;;;;4.60;3.23;;;20.30;92.60;;;;;;4937603;29;20913;-86
2023/06/19 01:31:12;;;;;;;3.77;3.13;;;20.30;92.60;;;;;;4944126;29;20664;-84
2023/06/19 01:33:42;;;;;;;4.50;3.77;;;20.40;92.60;;;;;;4931348;29;20838;-84
2023/06/19 01:36:08;;;;;;;4.73;2.40;;;20.40;92.50;;;;;;4944554;28;20443;-87
2023/06/19 01:38:35;;;;;;;4.03;2.73;;;20.40;92.50;;;;;;4940762;29;20457;-84
2023/06/19 01:41:02;;;;;;;6.73;3.67;;;20.50;92.40;;;;;;4939390;29;20451;-88
2023/06/19 01:43:30;;;;;;;3.47;2.63;;;20.50;92.30;;;;;;4936582;29;20459;-84
2023/06/19 01:45:56;;;;;;;9.90;3.40;;;20.50;92.30;;;;;;4943031;29;20431;-88
2023/06/19 01:48:23;;;;;;;2.87;2.30;;;20.50;92.40;;;;;;4952838;29;20502;-85
2023/06/19 01:50:50;;;;;;;5.40;2.63;;;20.50;92.50;;;;;;4946427;29;20195;-87
2023/06/19 01:53:16;;;;;;;5.07;4.30;;;20.50;92.50;;;;;;4952120;29;20442;-83
2023/06/19 01:55:42;;;;;;;5.70;2.87;;;20.50;92.60;;;;;;4944375;29;20439;-84
2023/06/19 01:58:08;;;;;;;5.30;3.43;;;20.50;92.50;;;;;;4948257;29;20190;-84
2023/06/19 02:00:36;;;;;;;4.67;2.53;;;20.50;92.60;;;;;;4940236;29;20814;-84
2023/06/19 02:03:02;;;;;;;3.40;3.13;;;20.50;92.50;;;;;;4940169;29;20200;-86
2023/06/19 02:05:28;;;;;;;4.20;3.20;;;20.50;92.60;;;;;;4940097;29;20430;-87
2023/06/19 02:07:53;;;;;;;5.50;3.43;;;20.40;92.50;;;;;;4942603;29;20176;-85
2023/06/19 02:10:24;;;;;;;4.37;3.00;;;20.40;92.60;;;;;;4945226;29;20800;-83
2023/06/19 02:12:51;;;;;;;6.20;4.00;;;20.40;92.70;;;;;;4944099;29;20667;-84
2023/06/19 02:15:17;;;;;;;5.10;2.83;;;20.40;92.80;;;;;;4951976;29;20470;-86
2023/06/19 02:17:45;;;;;;;4.20;2.60;;;20.30;92.60;;;;;;4957062;29;20414;-90
2023/06/19 02:20:13;;;;;;;6.30;3.70;;;20.30;92.70;;;;;;4956151;29;20521;-88
2023/06/19 02:22:39;;;;;;;5.23;3.60;;;20.30;92.90;;;;;;4947685;29;20429;-87
2023/06/19 02:25:05;;;;;;;3.60;2.90;;;20.30;93.00;;;;;;4950226;29;20419;-85
2023/06/19 02:27:31;;;;;;;7.00;3.07;;;20.30;92.90;;;;;;4944986;29;20187;-88
2023/06/19 02:29:57;;;;;;;3.90;3.30;;;20.30;93.20;;;;;;4945654;29;20486;-88
2023/06/19 02:32:25;;;;;;;3.33;2.43;;;20.20;93.20;;;;;;4953921;28;20251;-88
2023/06/19 02:34:50;;;;;;;5.30;3.83;;;20.20;93.40;;;;;;4947707;28;20222;-84
2023/06/19 02:37:16;;;;;;;3.73;2.57;;;20.20;93.30;;;;;;4951950;29;20443;-88
2023/06/19 02:39:41;;;;;;;3.30;3.20;;;20.20;93.30;;;;;;4943041;29;20218;-87
2023/06/19 02:42:07;;;;;;;10.27;4.53;;;20.10;93.60;;;;;;4945621;29;20187;-89
2023/06/19 02:44:33;;;;;;;3.40;2.00;;;20.10;93.80;;;;;;4943790;29;20215;-87
2023/06/19 02:47:05;;;;;;;6.83;4.93;;;20.10;93.80;;;;;;4948720;29;20830;-91
2023/06/19 02:49:33;;;;;;;5.57;3.73;;;20.00;93.80;;;;;;4941087;29;20200;-87
2023/06/19 02:52:08;;;;;;;4.13;3.03;;;20.00;93.80;;;;;;4948220;28;20428;-88
2023/06/19 02:54:34;;;;;;;7.27;3.73;;;19.90;94.00;;;;;;4944876;29;20422;-84
2023/06/19 02:56:59;;;;;;;4.47;3.43;;;19.80;94.10;;;;;;4941936;29;20845;-87
2023/06/19 02:59:25;;;;;;;7.63;4.13;;;19.80;94.50;;;;;;4944868;28;20207;-86
2023/06/19 03:01:51;;;;;;;5.00;3.93;;;19.70;94.60;;;;;;4942214;29;20690;-85
2023/06/19 03:04:17;;;;;;;3.83;3.50;;;19.60;94.70;;;;;;4940155;29;20253;-86
2023/06/19 03:06:43;;;;;;;4.33;2.83;;;19.60;94.80;;;;;;4941799;29;20439;-87
2023/06/19 03:09:12;;;;;;;5.67;4.47;;;19.60;94.90;;;;;;4942765;29;20196;-88
2023/06/19 03:11:41;;;;;;;5.13;3.33;;;19.50;95.00;;;;;;4939614;29;20184;-87
2023/06/19 03:14:07;;;;;;;5.10;3.60;;;19.50;95.10;;;;;;4938669;29;20441;-88
2023/06/19 03:16:34;;;;;;;4.20;3.20;;;19.40;95.30;;;;;;4941610;29;21184;-87
2023/06/19 03:18:59;;;;;;;5.33;3.87;;;19.40;95.30;;;;;;4949508;29;20474;-87
2023/06/19 03:21:25;;;;;;;7.43;4.17;;;19.40;95.30;;;;;;4936546;29;20451;-85
2023/06/19 03:23:51;;;;;;;7.87;3.80;;;19.40;95.40;;;;;;4942653;29;20310;-90
2023/06/19 03:26:18;;;;;;;4.03;2.53;;;19.40;95.50;;;;;;4943324;29;20269;-87
2023/06/19 03:28:43;;;;;;;8.37;4.43;;;19.40;95.60;;;;;;4951951;29;20187;-86
2023/06/19 03:31:09;;;;;;;8.17;3.10;;;19.40;95.50;;;;;;4944872;28;20447;-87
2023/06/19 03:33:34;;;;;;;5.17;4.10;;;19.40;95.50;;;;;;4948746;29;20202;-85
2023/06/19 03:36:00;;;;;;;4.00;3.37;;;19.40;95.50;;;;;;4941789;28;20223;-88
2023/06/19 03:38:25;;;;;;;12.03;4.17;;;19.30;95.90;;;;;;4945767;29;20195;-88
2023/06/19 03:40:51;;;;;;;3.00;2.83;;;19.30;95.90;;;;;;4942401;29;20675;-88
2023/06/19 03:43:16;;;;;;;6.80;4.20;;;19.20;95.70;;;;;;4939755;29;20215;-86
2023/06/19 03:45:44;;;;;;;3.97;2.80;;;19.20;95.50;;;;;;4941915;29;20195;-88
2023/06/19 03:48:15;;;;;;;3.80;3.10;;;19.10;95.70;;;;;;4938172;29;20278;-88
2023/06/19 03:50:45;;;;;;;6.60;4.23;;;19.00;96.00;;;;;;4936535;29;21020;-87
2023/06/19 03:53:18;;;;;;;3.30;3.00;;;19.00;96.20;;;;;;4939304;29;20439;-88
2023/06/19 03:55:44;;;;;;;7.10;3.70;;;19.00;96.30;;;;;;4941683;29;20462;-90
2023/06/19 03:58:12;;;;;;;3.13;2.40;;;19.10;96.60;;;;;;4945050;29;20534;-86
2023/06/19 04:00:37;;;;;;;3.87;3.40;;;19.10;96.60;;;;;;4940194;29;20215;-87
2023/06/19 04:03:05;;;;;;;10.67;4.43;;;19.20;96.40;;;;;;4940256;29;20467;-87
2023/06/19 04:05:39;;;;;;;7.53;4.03;;;19.30;96.40;;;;;;4945540;29;20230;-87
2023/06/19 04:08:05;;;;;;;6.00;4.70;;;19.30;96.30;;;;;;4952514;28;20421;-86
2023/06/19 04:10:30;;;;;;;6.20;2.60;;;19.40;96.30;;;;;;4945947;28;20531;-88
2023/06/19 04:12:56;;;;;;;6.87;4.30;;;19.40;96.20;;;;;;4939774;29;20275;-88
2023/06/19 04:15:25;;;;;;;4.20;3.10;;;19.40;96.30;;;;;;4947962;29;20234;-84
2023/06/19 04:17:55;;;;;;;4.97;2.97;;;19.40;96.30;;;;;;4950310;29;20191;-85
2023/06/19 04:20:26;;;;;;;7.83;4.27;;;19.40;96.10;;;;;;4946447;29;20512;-87
2023/06/19 04:22:54;;;;;;;6.77;5.00;;;19.40;96.30;;;;;;4944559;28;20429;-89
2023/06/19 04:25:24;;;;;;;3.83;2.90;;;19.50;96.10;;;;;;4934864;29;20432;-85
2023/06/19 04:28:01;;;;;;;6.63;4.00;;;19.50;96.10;;;;;;4946146;29;20444;-87
2023/06/19 04:30:27;;;;;;;5.10;4.73;;;19.60;96.20;;;;;;4943075;29;20664;-85
2023/06/19 04:32:55;;;;;;;11.33;4.97;;;19.60;96.10;;;;;;4936811;29;20824;-87
2023/06/19 04:35:20;;;;;;;3.80;3.40;;;19.70;96.00;;;;;;4939296;29;20178;-86
2023/06/19 04:37:48;;;;;;;6.07;3.70;;;19.70;96.10;;;;;;4946103;29;20428;-86
2023/06/19 04:40:16;;;;;;;3.33;3.13;;;19.80;95.80;;;;;;4945726;29;20206;-86
2023/06/19 04:42:44;;;;;;;5.47;4.10;;;19.80;95.80;;;;;;4945390;29;20446;-85
2023/06/19 04:45:10;;;;;;;4.57;3.37;;;19.80;95.30;;;;;;4945521;29;20439;-89
2023/06/19 04:47:36;;;;;;;5.40;3.17;;;19.90;95.30;;;;;;4935273;29;20424;-87
2023/06/19 04:50:16;;;;;;;11.10;2.83;;;19.90;95.10;;;;;;4939491;29;20200;-87
2023/06/19 04:52:44;;;;;;;7.40;4.50;;;20.00;95.00;;;;;;4948122;29;20188;-86
2023/06/19 04:55:12;;;;;;;4.40;3.70;;;20.00;95.10;;;;;;4936230;29;20443;-87
2023/06/19 04:57:37;;;;;;;4.27;3.97;;;20.00;95.10;;;;;;4935570;29;20412;-87
2023/06/19 05:00:06;;;;;;;6.47;3.60;;;20.10;94.90;;;;;;4941855;29;20438;-86
2023/06/19 05:02:34;;;;;;;6.57;3.70;;;20.10;94.90;;;;;;4937916;29;20179;-88
2023/06/19 05:05:07;;;;;;;8.10;3.93;;;20.20;94.80;;;;;;4936833;29;20466;-88
2023/06/19 05:07:36;;;;;;;3.00;2.60;;;20.30;94.80;;;;;;4938049;29;20448;-85
2023/06/19 05:10:04;;;;;;;6.23;3.33;;;20.30;94.80;;;;;;4938015;29;20842;-86
2023/06/19 05:12:37;;;;;;;4.20;3.43;;;20.40;94.60;;;;;;4935527;29;20487;-86
2023/06/19 05:15:05;;;;;;;10.40;4.10;;;20.50;94.70;;;;;;4937320;29;20459;-86
2023/06/19 05:17:36;;;;;;;10.23;5.80;;;20.60;94.70;;;;;;4938637;29;20829;-87
2023/06/19 05:20:09;;;;;;;3.23;2.73;;;20.70;94.50;;;;;;4938648;29;20881;-88
2023/06/19 05:22:34;;;;;;;7.53;5.33;;;20.70;94.40;;;;;;4933124;28;20424;-87
2023/06/19 05:25:02;;;;;;;3.10;2.73;;;20.70;94.30;;;;;;4934663;29;20471;-85
2023/06/19 05:27:28;;;;;;;6.17;3.03;;;20.80;94.20;;;;;;4941242;29;20179;-86
2023/06/19 05:29:55;;;;;;;5.63;2.80;;;20.80;94.00;;;;;;4944831;28;20783;-84
2023/06/19 05:32:34;;;;;;;3.47;2.80;;;20.90;94.00;;;;;;4944486;29;20182;-86
2023/06/19 05:35:04;;;;;;;6.13;3.43;;;20.90;94.20;;;;;;4938749;29;20437;-87
2023/06/19 05:37:38;;;;;;;3.63;2.87;;;20.90;94.00;;;;;;4935346;29;20443;-86
2023/06/19 05:40:05;;;;;;;8.77;4.13;;;20.90;93.90;;;;;;4937478;29;20458;-86
2023/06/19 05:42:38;;;;;;;5.67;3.40;;;20.90;93.90;;;;;;4941919;29;20435;-86
2023/06/19 05:45:04;;;;;;;10.63;4.57;;;20.90;93.90;;;;;;4939981;29;20515;-86
2023/06/19 05:47:30;;;;;;;6.13;2.87;;;20.90;93.80;;;;;;4943043;29;20429;-88
2023/06/19 05:49:57;;;;;;;6.10;2.90;;;20.90;93.90;;;;;;4945803;29;20451;-87
2023/06/19 05:52:22;;;;;;;10.40;4.83;;;20.90;94.00;;;;;;4938663;29;20188;-84
2023/06/19 05:54:48;;;;;;;3.53;2.43;;;21.00;94.10;;;;;;4935320;29;20775;-88
2023/06/19 05:57:15;;;;;;;4.07;3.33;;;21.00;94.00;;;;;;4945236;29;20192;-86
2023/06/19 05:59:41;;;;;;;7.40;3.73;;;21.00;93.90;;;;;;4937587;29;20199;-83
2023/06/19 06:02:07;;;;;;;7.20;4.40;;;21.00;93.90;;;;;;4936688;29;20441;-88
2023/06/19 06:04:34;;;;;;;4.17;3.63;;;21.00;94.00;;;;;;4945706;29;20598;-85
2023/06/19 06:07:00;;;;;;;14.53;3.53;;;21.00;94.00;;;;;;4933308;29;20195;-86
2023/06/19 06:09:26;;;;;;;6.30;3.10;;;21.00;94.10;;;;;;4933508;29;20468;-84
2023/06/19 06:11:52;;;;;;;8.60;4.23;;;21.00;94.10;;;;;;4941793;29;20427;-84
2023/06/19 06:14:18;;;;;;;4.80;3.77;;;21.00;94.10;;;;;;4937847;29;20430;-87
2023/06/19 06:16:43;;;;;;;4.13;3.90;;;21.00;94.40;;;;;;4937893;29;20172;-87
2023/06/19 06:19:09;;;;;;;3.40;2.87;;;21.00;95.10;;;;;;4941112;29;20211;-86
2023/06/19 06:21:34;;;;;;;5.40;4.37;;;21.00;95.00;;;;;;4944923;29;20183;-87
2023/06/19 06:24:00;;;;;;;4.27;3.90;;;21.10;94.90;;;;;;4937146;29;20223;-84
2023/06/19 06:26:26;;;;;;;15.60;5.87;;;21.10;95.10;;;;;;4943859;29;20191;-85
2023/06/19 06:28:52;;;;;;;6.20;3.57;;;21.10;94.90;;;;;;4939616;29;20246;-86
2023/06/19 06:31:17;;;;;;;6.10;4.23;;;21.10;95.10;;;;;;4939145;29;20451;-85
2023/06/19 06:33:43;;;;;;;5.97;4.67;;;21.10;95.20;;;;;;4940056;29;20187;-84
2023/06/19 06:36:09;;;;;;;3.80;3.60;;;21.10;95.20;;;;;;4944669;29;20180;-87
2023/06/19 06:38:34;;;;;;;6.67;4.27;;;21.10;95.10;;;;;;4943800;29;20729;-85
2023/06/19 06:41:00;;;;;;;8.80;3.37;;;21.10;95.30;;;;;;4938717;29;20216;-84
2023/06/19 06:43:25;;;;;;;7.30;4.10;;;21.20;95.30;;;;;;4950776;29;20223;-86
2023/06/19 06:45:51;;;;;;;9.13;4.87;;;21.10;95.70;;;;;;4940131;29;20176;-87
2023/06/19 06:48:17;;;;;;;7.93;5.07;;;21.10;95.80;;;;;;4947128;29;20710;-84
2023/06/19 06:50:43;;;;;;;4.50;2.27;;;21.10;95.80;;;;;;4945972;29;20206;-86
2023/06/19 06:53:08;;;;;;;7.23;3.27;;;21.10;96.20;;;;;;4953157;29;20258;-86
2023/06/19 06:55:34;;;;;;;4.77;4.37;;;21.10;96.20;;;;;;4944575;29;20456;-84
2023/06/19 06:57:59;;;;;;;5.07;3.23;;;21.10;96.50;;;;;;4942695;29;20188;-87
2023/06/19 07:00:25;;;;;;;9.50;5.97;;;21.00;96.30;;;;;;4944965;29;20313;-88
2023/06/19 07:02:53;;;;;;;7.50;5.10;;;21.00;96.60;;;;;;4950336;29;20199;-87
2023/06/19 07:05:19;;;;;;;4.50;4.30;;;20.90;96.60;;;;;;4958386;29;20192;-87
2023/06/19 07:07:45;;;;;;;4.67;3.40;;;20.90;97.00;;;;;;4950643;29;20445;-85
2023/06/19 07:10:10;;;;;;;6.40;4.93;;;20.80;97.00;;;;;;4953633;29;20259;-88
2023/06/19 07:12:48;;;;;;;10.00;5.20;;;20.80;97.10;;;;;;4950047;29;20183;-84
2023/06/19 07:15:13;;;;;;;5.13;3.50;;;20.80;97.30;;;;;;4947022;29;20682;-85
2023/06/19 07:17:39;;;;;;;6.77;4.40;;;20.80;97.30;;;;;;4945182;29;20424;-87
2023/06/19 07:20:06;;;;;;;5.87;5.10;;;20.70;97.30;;;;;;4967123;23;20269;-84
2023/06/19 07:22:35;;;;;;;7.77;5.50;;;20.70;97.30;;;;;;4948381;29;20186;-87
2023/06/19 07:25:01;;;;;;;13.33;4.70;;;20.80;97.30;;;;;;4948087;29;21075;-87
2023/06/19 07:27:27;;;;;;;4.23;3.20;;;20.80;97.30;;;;;;4948262;29;20434;-86
2023/06/19 07:29:53;;;;;;;7.43;4.17;;;20.80;97.30;;;;;;4949485;29;20219;-87
2023/06/19 07:32:19;;;;;;;5.00;3.50;;;20.80;97.30;;;;;;4943708;29;20412;-85
2023/06/19 07:34:45;;;;;;;9.43;5.00;;;20.80;97.30;;;;;;4947883;29;20215;-84
2023/06/19 07:37:17;;;;;;;6.70;3.63;;;20.70;97.30;;;;;;4946874;29;20482;-85
2023/06/19 07:39:44;;;;;;;5.30;3.00;;;20.70;97.30;;;;;;4945859;29;20897;-86
2023/06/19 07:42:10;;;;;;;6.87;4.53;;;20.70;97.30;;;;;;4947949;29;20947;-89
2023/06/19 07:44:36;;;;;;;3.30;2.90;;;20.70;97.30;;;;;;4949332;28;20458;-85
2023/06/19 07:47:01;;;;;;;11.57;5.23;;;20.70;97.30;;;;;;4947202;29;20431;-88
2023/06/19 07:49:27;;;;;;;5.13;4.03;;;20.70;97.30;;;;;;4947306;29;20199;-87
2023/06/19 07:51:53;;;;;;;4.20;3.80;;;20.70;97.30;;;;;;4950289;29;20179;-89
2023/06/19 07:54:18;;;;;;;6.60;5.57;;;20.80;97.30;;;;;;4945379;29;20278;-84
2023/06/19 07:56:44;;;;;;;17.13;4.00;;;20.80;97.30;;;;;;4944747;29;20431;-88
2023/06/19 07:59:09;;;;;;;9.63;6.50;;;20.80;97.30;;;;;;4952997;29;20294;-84
2023/06/19 08:01:35;;;;;;;8.83;4.97;;;20.80;97.30;;;;;;4953779;29;20652;-87
2023/06/19 08:04:00;;;;;;;7.23;4.07;;;20.80;97.30;;;;;;4952791;29;20293;-87
2023/06/19 08:06:26;;;;;;;5.30;4.33;;;20.90;97.30;;;;;;4953059;29;20193;-84
2023/06/19 08:08:51;;;;;;;10.43;4.80;;;20.90;97.30;;;;;;4951879;29;20176;-85
2023/06/19 08:11:17;;;;;;;9.90;5.50;;;20.90;97.30;;;;;;4952298;29;20265;-85
2023/06/19 08:13:43;;;;;;;5.07;3.43;;;21.00;97.30;;;;;;4951731;29;20213;-86
2023/06/19 08:16:10;;;;;;;7.30;4.57;;;21.00;97.30;;;;;;4953969;29;20695;-87
2023/06/19 08:18:35;;;;;;;9.50;4.13;;;21.00;97.30;;;;;;4952363;29;20554;-84
2023/06/19 08:21:01;;;;;;;4.07;3.37;;;21.00;97.30;;;;;;4952876;29;20458;-86
2023/06/19 08:23:26;;;;;;;15.70;5.97;;;21.00;97.30;;;;;;4952856;29;20203;-85
2023/06/19 08:25:52;;;;;;;5.33;4.63;;;21.10;97.30;;;;;;4951889;29;20189;-87
2023/06/19 08:28:17;;;;;;;4.10;3.87;;;21.10;97.30;;;;;;4947712;29;20198;-84
2023/06/19 08:30:45;;;;;;;6.50;3.20;;;21.10;97.30;;;;;;4949010;29;20286;-86
2023/06/19 08:33:12;;;;;;;5.73;4.47;;;21.20;97.30;;;;;;4944070;29;20549;-86
2023/06/19 08:35:38;;;;;;;4.80;3.90;;;21.20;97.30;;;;;;4952104;29;20537;-86
2023/06/19 08:38:03;;;;;;;5.37;3.30;;;21.30;97.30;;;;;;4952818;29;20442;-86
2023/06/19 08:40:29;;;;;;;5.53;5.27;;;21.30;97.30;;;;;;4952728;29;20293;-88
2023/06/19 08:42:55;;;;;;;10.70;4.50;;;21.40;97.30;;;;;;4952994;29;20677;-89
2023/06/19 08:45:21;;;;;;;7.73;5.40;;;21.50;97.30;;;;;;4951434;29;20183;-83
2023/06/19 08:47:48;;;;;;;7.20;4.83;;;21.70;97.30;;;;;;4944242;29;20449;-88
2023/06/19 08:50:14;;;;;;;4.10;3.60;;;21.80;97.30;;;;;;4953597;28;20352;-85
2023/06/19 08:52:39;;;;;;;5.60;3.87;;;21.90;97.30;;;;;;4953026;29;20426;-86
2023/06/19 08:55:05;;;;;;;4.67;3.90;;;22.10;97.30;;;;;;4949375;29;21004;-87
2023/06/19 08:57:37;;;;;;;3.43;3.23;;;22.20;97.30;;;;;;4951990;28;20615;-85
2023/06/19 09:00:05;;;;;;;9.77;3.97;;;22.30;96.20;;;;;;4951882;29;20545;-87
2023/06/19 09:02:46;;;;;;;4.30;3.33;;;22.50;96.50;;;;;;4946899;29;20447;-84
2023/06/19 09:05:17;;;;;;;4.70;3.73;;;22.60;97.30;;;;;;4949706;29;20466;-87
2023/06/19 09:07:44;;;;;;;10.63;3.57;;;22.70;96.30;;;;;;4950161;29;20522;-86
2023/06/19 09:10:18;;;;;;;5.40;3.43;;;22.80;96.00;;;;;;4949886;29;20438;-83
2023/06/19 09:12:55;;;;;;;4.90;3.10;;;22.80;95.80;;;;;;4950436;29;20511;-83
2023/06/19 09:15:20;;;;;;;4.10;3.23;;;22.90;96.00;;;;;;4943280;29;20513;-84
2023/06/19 09:17:46;;;;;;;3.37;3.13;;;22.90;95.90;;;;;;4951804;29;20467;-87
2023/06/19 09:20:11;;;;;;;4.43;4.13;;;23.00;95.90;;;;;;4931851;29;20223;-86
2023/06/19 09:22:37;;;;;;;7.63;5.20;;;23.00;95.90;;;;;;4939382;29;20249;-87
2023/06/19 09:25:03;;;;;;;5.30;3.40;;;23.10;96.00;;;;;;4950689;29;20914;-86
2023/06/19 09:27:33;;;;;;;5.80;4.40;;;23.10;96.20;;;;;;4948942;29;20418;-85
2023/06/19 09:30:00;;;;;;;6.47;4.33;;;23.20;96.00;;;;;;4949215;29;20211;-88
2023/06/19 09:32:30;;;;;;;6.93;4.03;;;23.30;95.90;;;;;;4950630;29;20459;-86
2023/06/19 09:35:00;;;;;;;4.60;3.90;;;23.40;95.60;;;;;;4948964;29;20442;-88
2023/06/19 09:37:27;;;;;;;4.13;3.60;;;23.40;95.40;;;;;;4951321;29;20541;-85
2023/06/19 09:39:58;;;;;;;4.40;4.10;;;23.50;95.00;;;;;;4951122;29;20452;-87
2023/06/19 09:42:32;;;;;;;8.40;3.63;;;23.60;95.00;;;;;;4950742;29;20423;-84
2023/06/19 09:45:06;;;;;;;5.17;3.40;;;23.80;94.90;;;;;;4942266;29;20527;-88
2023/06/19 09:47:36;;;;;;;8.30;4.10;;;24.00;94.20;;;;;;4950947;29;20501;-85
2023/06/19 09:50:03;;;;;;;5.93;3.97;;;24.20;93.40;;;;;;4951133;29;20450;-88
2023/06/19 09:52:29;;;;;;;4.87;4.07;;;24.40;92.70;;;;;;4951074;29;20853;-85
2023/06/19 09:54:57;;;;;;;5.13;3.73;;;24.60;92.60;;;;;;4950774;29;20425;-86
2023/06/19 09:57:23;;;;;;;4.30;2.70;;;24.80;92.10;;;;;;4950803;29;20470;-85
2023/06/19 09:59:58;;;;;;;4.97;3.63;;;25.00;84.20;;;;;;4950415;29;20669;-88
2023/06/19 10:02:26;;;;;;;3.93;2.73;;;25.20;82.80;;;;;;4937735;29;20187;-86
2023/06/19 10:04:55;;;;;;;6.57;3.37;;;25.30;80.50;;;;;;4950157;29;20459;-87
2023/06/19 10:07:23;;;;;;;5.77;3.57;;;25.50;83.10;;;;;;4949937;28;21031;-85
2023/06/19 10:09:56;;;;;;;4.57;3.57;;;25.50;81.00;;;;;;4954565;29;20489;-88
2023/06/19 10:12:22;;;;;;;4.10;3.60;;;25.60;79.70;;;;;;4956036;28;20410;-84
2023/06/19 10:14:50;;;;;;;6.27;3.67;;;25.70;79.80;;;;;;4956405;29;20526;-87
2023/06/19 10:17:19;;;;;;;8.07;4.37;;;25.80;80.10;;;;;;4946914;29;20720;-85
2023/06/19 10:19:52;;;;;;;6.03;2.67;;;25.80;79.40;;;;;;4950564;29;20529;-86
2023/06/19 10:22:21;;;;;;;8.00;4.00;;;25.90;80.00;;;;;;4952996;29;20434;-85
2023/06/19 10:24:51;;;;;;;3.57;2.50;;;26.00;80.30;;;;;;4951369;29;20498;-89
2023/06/19 10:27:22;;;;;;;4.93;3.47;;;26.10;81.20;;;;;;4945789;29;20426;-85
2023/06/19 10:29:53;;;;;;;3.50;3.30;;;26.20;80.90;;;;;;4950726;29;20454;-88
2023/06/19 10:32:19;;;;;;;5.97;3.60;;;26.30;82.10;;;;;;4946935;29;21187;-86
2023/06/19 10:34:47;;;;;;;6.40;3.70;;;26.40;80.90;;;;;;4954341;29;20435;-84
2023/06/19 10:37:12;;;;;;;7.80;3.80;;;26.60;80.20;;;;;;4953450;29;20179;-88
2023/06/19 10:39:38;;;;;;;20.50;3.43;;;26.70;80.70;;;;;;4953693;29;20450;-87
2023/06/19 10:42:08;;;;;;;6.70;3.63;;;26.70;81.20;;;;;;4953522;29;20189;-84
2023/06/19 10:44:34;;;;;;;8.43;4.50;;;26.80;79.80;;;;;;4953905;29;20301;-84
2023/06/19 10:47:01;;;;;;;6.03;3.80;;;26.90;81.40;;;;;;4952006;29;20430;-87
2023/06/19 10:49:27;;;;;;;7.63;4.20;;;27.00;81.00;;;;;;4953973;29;20469;-87
2023/06/19 10:51:58;;;;;;;3.17;2.90;;;27.20;80.00;;;;;;4954805;28;20505;-87
2023/06/19 10:54:31;;;;;;;5.57;3.80;;;27.30;79.20;;;;;;4954116;29;20176;-88
2023/06/19 10:56:57;;;;;;;5.27;3.90;;;27.40;78.00;;;;;;4953147;28;20478;-87
2023/06/19 10:59:23;;;;;;;8.83;4.63;;;27.50;77.10;;;;;;4952500;29;20446;-85
2023/06/19 11:01:50;;;;;;;5.20;2.97;;;27.60;79.00;;;;;;4954961;28;20430;-88
2023/06/19 11:04:16;;;;;;;3.50;3.30;;;27.80;79.80;;;;;;4953063;29;20591;-86
2023/06/19 11:06:43;;;;;;;4.20;2.70;;;27.90;78.50;;;;;;4952010;29;20518;-88
2023/06/19 11:09:11;;;;;;;8.50;4.70;;;28.10;78.90;;;;;;4953290;29;20713;-88
2023/06/19 11:11:47;;;;;;;3.70;3.13;;;28.20;76.50;;;;;;4953689;29;20796;-84
2023/06/19 11:14:14;;;;;;;6.20;4.10;;;28.40;76.60;;;;;;4952409;29;20889;-89
2023/06/19 11:16:42;;;;;;;6.93;3.70;;;28.40;75.30;;;;;;4953322;28;20430;-86
2023/06/19 11:19:15;;;;;;;5.90;3.83;;;28.50;75.00;;;;;;4952661;28;20451;-87
2023/06/19 11:21:46;;;;;;;3.97;2.67;;;28.40;74.60;;;;;;4954117;29;20868;-84
2023/06/19 11:24:13;;;;;;;8.63;5.00;;;28.40;74.80;;;;;;4952548;29;20569;-86
2023/06/19 11:26:49;;;;;;;3.37;3.23;;;28.40;76.50;;;;;;4952005;29;20423;-89
2023/06/19 11:29:26;;;;;;;8.97;5.57;;;28.30;77.20;;;;;;4953279;29;20501;-88
2023/06/19 11:32:10;;;;;;;3.73;3.00;;;28.30;77.60;;;;;;4951580;29;20431;-87
2023/06/19 11:34:36;;;;;;;4.70;3.87;;;28.30;76.80;;;;;;4947713;29;20925;-85
2023/06/19 11:37:22;;;;;;;6.30;4.40;;;28.30;77.80;;;;;;4949107;29;20430;-88
2023/06/19 11:39:49;;;;;;;8.00;4.80;;;28.30;74.90;;;;;;4947811;29;20529;-87
2023/06/19 11:42:17;;;;;;;5.57;4.20;;;28.30;74.50;;;;;;4951335;29;20419;-87
2023/06/19 11:45:05;;;;;;;6.00;4.20;;;28.40;75.50;;;;;;4952655;29;20469;-87
2023/06/19 11:47:31;;;;;;;7.33;4.27;;;28.50;76.40;;;;;;4944989;29;20441;-84
2023/06/19 11:49:57;;;;;;;2.97;2.30;;;28.70;75.30;;;;;;4952052;29;20443;-87
2023/06/19 11:52:23;;;;;;;7.90;5.63;;;28.80;75.30;;;;;;4953442;28;20459;-87
2023/06/19 11:54:48;;;;;;;4.60;3.63;;;29.00;76.10;;;;;;4945019;29;20183;-84
2023/06/19 11:57:14;;;;;;;6.83;4.43;;;29.10;75.10;;;;;;4951556;29;20199;-85
2023/06/19 11:59:40;;;;;;;4.97;3.93;;;29.10;75.10;;;;;;4951836;29;20249;-85
2023/06/19 12:02:06;;;;;;;9.53;5.07;;;29.20;74.90;;;;;;4956727;29;20187;-86
2023/06/19 12:04:32;;;;;;;6.57;3.80;;;29.30;73.80;;;;;;4956663;28;21084;-86
2023/06/19 12:06:58;;;;;;;8.37;4.77;;;29.50;74.60;;;;;;4953841;29;20254;-86
2023/06/19 12:09:24;;;;;;;5.37;3.80;;;29.60;73.50;;;;;;4955998;29;20964;-86
2023/06/19 12:11:50;;;;;;;4.13;3.13;;;29.60;74.00;;;;;;4956118;29;20302;-87
2023/06/19 12:14:15;;;;;;;8.07;4.30;;;29.70;74.20;;;;;;4953743;29;20824;-88
2023/06/19 12:16:41;;;;;;;6.20;4.00;;;29.80;73.70;;;;;;4949940;29;20676;-87
2023/06/19 12:19:06;;;;;;;4.00;3.77;;;29.80;72.90;;;;;;4947668;29;20190;-87
2023/06/19 12:21:32;;;;;;;5.67;4.10;;;29.90;73.50;;;;;;4945869;29;20191;-87
2023/06/19 12:23:57;;;;;;;9.07;5.40;;;29.90;72.60;;;;;;4943887;29;20263;-88
2023/06/19 12:26:25;;;;;;;7.73;3.87;;;30.00;74.00;;;;;;4951349;29;20178;-88
2023/06/19 12:28:50;;;;;;;6.13;4.00;;;30.10;74.60;;;;;;4947003;28;20243;-90
2023/06/19 12:31:17;;;;;;;4.60;3.67;;;30.20;75.00;;;;;;4947602;28;20431;-91
2023/06/19 12:33:43;;;;;;;7.70;5.33;;;30.20;72.40;;;;;;4951580;29;20641;-86
2023/06/19 12:36:12;;;;;;;7.60;4.50;;;30.30;72.50;;;;;;4946170;29;20479;-85
2023/06/19 12:38:38;;;;;;;7.40;4.03;;;30.30;70.90;;;;;;4942946;29;20175;-85
2023/06/19 12:41:04;;;;;;;7.33;4.17;;;30.30;73.10;;;;;;4959100;28;20954;-84
2023/06/19 12:43:31;;;;;;;3.23;3.10;;;30.30;71.90;;;;;;4948809;29;20521;-84
2023/06/19 12:45:59;;;;;;;6.50;4.17;;;30.30;71.80;;;;;;4948008;29;20187;-88
2023/06/19 12:48:27;;;;;;;7.10;4.13;;;30.30;72.60;;;;;;4935948;28;20717;-85